createdAt,value
2018-07-17T00:01:46.693Z,6.70
2018-07-17T00:04:14.736Z,7.07
2018-07-17T00:06:42.788Z,7.23
2018-07-17T00:09:10.809Z,6.87
2018-07-17T00:11:38.860Z,7.27
2018-07-17T00:14:06.909Z,7.30
2018-07-17T00:16:35.003Z,7.03
2018-07-17T00:19:03.364Z,7.13
2018-07-17T00:21:32.434Z,7.90
2018-07-17T00:24:01.561Z,6.70
2018-07-17T00:26:30.332Z,6.73
2018-07-17T00:28:58.440Z,7.17
2018-07-17T00:31:26.637Z,7.13
2018-07-17T00:33:54.680Z,7.07
2018-07-17T00:36:22.823Z,7.13
2018-07-17T00:38:50.953Z,7.57
2018-07-17T00:41:19.016Z,7.90
2018-07-17T00:43:47.085Z,7.50
2018-07-17T00:46:15.157Z,8.05
2018-07-17T00:48:43.225Z,7.60
2018-07-17T00:51:11.305Z,8.00
2018-07-17T00:53:39.344Z,7.00
2018-07-17T00:56:07.422Z,6.83
2018-07-17T00:58:35.450Z,6.87
2018-07-17T01:01:03.297Z,6.70
2018-07-17T01:03:36.897Z,6.47
2018-07-17T01:06:10.598Z,6.42
2018-07-17T01:08:43.813Z,6.87
2018-07-17T01:11:17.350Z,6.50
2018-07-17T01:13:52.050Z,8.90
2018-07-17T01:16:20.154Z,7.10
2018-07-17T01:18:48.193Z,7.30
2018-07-17T01:21:16.268Z,7.77
2018-07-17T01:23:44.313Z,7.07
2018-07-17T01:26:12.377Z,7.27
2018-07-17T01:28:40.439Z,7.40
2018-07-17T01:31:08.513Z,7.83
2018-07-17T01:33:36.571Z,7.07
2018-07-17T01:36:05.290Z,6.53
2018-07-17T01:38:34.404Z,7.07
2018-07-17T01:41:03.325Z,6.70
2018-07-17T01:43:31.600Z,8.17
2018-07-17T01:45:59.733Z,7.60
2018-07-17T01:48:27.757Z,7.20
2018-07-17T01:50:55.838Z,7.17
2018-07-17T01:53:23.894Z,7.47
2018-07-17T01:55:51.961Z,6.65
2018-07-17T01:58:20.260Z,6.97
2018-07-17T02:00:48.354Z,7.40
2018-07-17T02:03:16.431Z,7.37
2018-07-17T02:05:44.488Z,7.40
2018-07-17T02:08:13.565Z,7.17
2018-07-17T02:10:42.237Z,7.23
2018-07-17T02:13:10.417Z,7.60
2018-07-17T02:15:38.531Z,8.07
2018-07-17T02:18:06.614Z,9.10
2018-07-17T02:20:34.658Z,9.83
2018-07-17T02:23:02.720Z,9.30
2018-07-17T02:25:30.973Z,8.63
2018-07-17T02:27:59.075Z,8.60
2018-07-17T02:30:27.130Z,7.70
2018-07-17T02:32:55.184Z,7.50
2018-07-17T02:35:23.266Z,6.80
2018-07-17T02:37:51.335Z,6.60
2018-07-17T02:40:19.420Z,7.33
2018-07-17T02:42:47.510Z,8.00
2018-07-17T02:45:15.767Z,6.73
2018-07-17T02:47:44.789Z,7.00
2018-07-17T02:50:13.843Z,7.00
2018-07-17T02:52:42.327Z,8.13
2018-07-17T02:55:10.545Z,7.67
2018-07-17T02:57:38.646Z,7.93
2018-07-17T03:00:06.731Z,7.80
2018-07-17T03:02:34.824Z,6.77
2018-07-17T03:05:02.915Z,7.57
2018-07-17T03:07:30.992Z,7.57
2018-07-17T03:09:59.043Z,8.10
2018-07-17T03:12:27.113Z,7.75
2018-07-17T03:14:55.195Z,7.50
2018-07-17T03:17:23.300Z,7.27
2018-07-17T03:19:51.350Z,8.27
2018-07-17T03:22:19.396Z,6.87
2018-07-17T03:24:47.534Z,7.83
2018-07-17T03:27:16.443Z,8.33
2018-07-17T03:29:45.496Z,8.93
2018-07-17T03:32:14.448Z,8.07
2018-07-17T03:34:43.244Z,10.60
2018-07-17T03:37:11.476Z,7.53
2018-07-17T03:39:39.561Z,8.80
2018-07-17T03:42:07.713Z,8.37
2018-07-17T03:44:35.770Z,8.30
2018-07-17T03:47:03.829Z,7.30
2018-07-17T03:49:31.905Z,7.30
2018-07-17T03:51:59.985Z,7.60
2018-07-17T03:54:28.078Z,8.20
2018-07-17T03:56:56.378Z,9.43
2018-07-17T03:59:24.505Z,7.40
2018-07-17T04:01:52.727Z,7.40
2018-07-17T04:04:20.936Z,8.57
2018-07-17T04:06:48.917Z,8.53
2018-07-17T04:09:17.271Z,8.60
2018-07-17T04:11:46.401Z,8.40
2018-07-17T04:14:15.363Z,8.67
2018-07-17T04:16:48.417Z,7.77
2018-07-17T04:19:17.212Z,9.20
2018-07-17T04:21:46.472Z,8.60
2018-07-17T04:24:16.718Z,8.87
2018-07-17T04:26:47.065Z,8.30
2018-07-17T04:29:16.082Z,9.10
2018-07-17T04:31:45.141Z,9.23
2018-07-17T04:34:13.255Z,8.00
2018-07-17T04:36:41.385Z,8.90
2018-07-17T04:39:11.311Z,8.13
2018-07-17T04:41:39.898Z,8.33
2018-07-17T04:44:08.248Z,7.17
2018-07-17T04:46:36.337Z,7.73
2018-07-17T04:49:04.458Z,7.50
2018-07-17T04:51:32.595Z,7.23
2018-07-17T04:54:00.764Z,8.10
2018-07-17T04:56:28.933Z,7.00
2018-07-17T04:58:57.189Z,7.53
2018-07-17T05:01:25.537Z,8.33
2018-07-17T05:03:53.587Z,8.43
2018-07-17T05:06:21.635Z,8.57
2018-07-17T05:08:49.718Z,8.10
2018-07-17T05:11:18.158Z,7.43
2018-07-17T05:13:47.206Z,7.83
2018-07-17T05:16:16.047Z,8.10
2018-07-17T05:18:44.173Z,8.70
2018-07-17T05:21:12.322Z,7.80
2018-07-17T05:23:40.396Z,8.80
2018-07-17T05:26:08.488Z,10.30
2018-07-17T05:28:36.565Z,11.70
2018-07-17T05:31:04.694Z,8.30
2018-07-17T05:33:32.770Z,9.30
2018-07-17T05:36:00.890Z,9.17
2018-07-17T05:38:28.957Z,9.87
2018-07-17T05:40:57.059Z,8.97
2018-07-17T05:43:25.109Z,8.93
2018-07-17T05:45:53.177Z,9.23
2018-07-17T05:48:21.224Z,8.10
2018-07-17T05:50:49.625Z,7.90
2018-07-17T05:53:18.604Z,7.90
2018-07-17T05:55:47.708Z,7.60
2018-07-17T05:58:16.404Z,8.20
2018-07-17T06:00:44.539Z,8.40
2018-07-17T06:03:12.615Z,7.70
2018-07-17T06:05:40.729Z,8.03
2018-07-17T06:08:08.786Z,8.03
2018-07-17T06:10:36.853Z,8.60
2018-07-17T06:13:04.893Z,7.93
2018-07-17T06:15:32.958Z,7.63
2018-07-17T06:18:01.008Z,7.13
2018-07-17T06:20:29.102Z,8.40
2018-07-17T06:22:57.164Z,8.80
2018-07-17T06:25:25.256Z,7.70
2018-07-17T06:27:53.476Z,7.90
2018-07-17T06:30:21.550Z,7.53
2018-07-17T06:32:49.853Z,8.00
2018-07-17T06:35:18.837Z,7.17
2018-07-17T06:37:48.049Z,7.00
2018-07-17T06:40:16.796Z,7.60
2018-07-17T06:42:44.892Z,8.13
2018-07-17T06:45:13.002Z,8.13
2018-07-17T06:47:41.225Z,8.17
2018-07-17T06:50:09.386Z,7.73
2018-07-17T06:52:37.369Z,7.90
2018-07-17T06:55:05.442Z,6.80
2018-07-17T06:57:33.490Z,7.80
2018-07-17T07:00:01.534Z,7.10
2018-07-17T07:02:29.611Z,7.90
2018-07-17T07:04:57.665Z,9.00
2018-07-17T07:07:25.730Z,6.77
2018-07-17T07:09:53.800Z,6.80
2018-07-17T07:12:21.897Z,7.27
2018-07-17T07:14:50.447Z,8.10
2018-07-17T07:17:19.441Z,6.30
2018-07-17T07:19:48.218Z,6.40
2018-07-17T07:22:16.477Z,7.70
2018-07-17T07:24:44.574Z,7.10
2018-07-17T07:27:12.652Z,7.00
2018-07-17T07:29:40.702Z,6.03
2018-07-17T07:32:08.803Z,7.13
2018-07-17T07:34:36.841Z,7.00
2018-07-17T07:37:05.007Z,10.70
2018-07-17T07:39:33.048Z,7.53
2018-07-17T07:42:01.130Z,7.80
2018-07-17T07:44:29.177Z,6.53
2018-07-17T07:46:57.307Z,7.60
2018-07-17T07:49:25.508Z,7.60
2018-07-17T07:51:53.578Z,5.90
2018-07-17T07:54:21.836Z,4.60
2018-07-17T07:56:56.725Z,6.33
2018-07-17T07:59:24.764Z,6.10
2018-07-17T08:01:52.830Z,6.17
2018-07-17T08:04:21.397Z,7.77
2018-07-17T08:06:50.508Z,7.50
2018-07-17T08:09:19.705Z,7.37
2018-07-17T08:11:48.373Z,7.73
2018-07-17T08:14:16.564Z,7.20
2018-07-17T08:16:44.682Z,7.00
2018-07-17T08:19:12.710Z,6.17
2018-07-17T08:21:40.795Z,6.73
2018-07-17T08:24:08.868Z,6.53
2018-07-17T08:26:36.949Z,7.07
2018-07-17T08:29:05.002Z,6.33
2018-07-17T08:31:33.087Z,6.93
2018-07-17T08:34:01.130Z,5.70
2018-07-17T08:36:29.260Z,5.62
2018-07-17T08:38:57.299Z,5.83
2018-07-17T08:41:25.397Z,5.00
2018-07-17T08:43:53.433Z,5.60
2018-07-17T08:46:22.114Z,5.50
2018-07-17T08:48:51.214Z,5.17
2018-07-17T08:51:20.619Z,5.20
2018-07-17T08:53:49.271Z,5.20
2018-07-17T08:56:17.390Z,5.27
2018-07-17T08:58:45.487Z,5.57
2018-07-17T09:01:13.534Z,4.93
2018-07-17T09:03:41.605Z,5.40
2018-07-17T09:06:09.645Z,5.50
2018-07-17T09:08:38.312Z,5.50
2018-07-17T09:11:06.501Z,5.77
2018-07-17T09:13:34.771Z,4.90
2018-07-17T09:16:02.995Z,5.23
2018-07-17T09:18:31.061Z,5.87
2018-07-17T09:20:59.122Z,5.83
2018-07-17T09:23:27.204Z,4.73
2018-07-17T09:25:55.245Z,5.17
2018-07-17T09:28:23.316Z,4.70
2018-07-17T09:30:56.622Z,5.30
2018-07-17T09:33:24.690Z,5.37
2018-07-17T09:35:52.825Z,4.63
2018-07-17T09:38:20.886Z,5.20
2018-07-17T09:40:48.979Z,5.27
2018-07-17T09:43:17.072Z,5.00
2018-07-17T09:45:45.110Z,4.80
2018-07-17T09:48:13.177Z,4.90
2018-07-17T09:50:41.513Z,4.93
2018-07-17T09:53:10.513Z,4.63
2018-07-17T09:55:39.464Z,4.50
2018-07-17T09:58:08.049Z,4.90
2018-07-17T10:00:41.400Z,5.37
2018-07-17T10:03:10.766Z,4.63
2018-07-17T10:05:39.647Z,5.30
2018-07-17T10:08:08.221Z,4.90
2018-07-17T10:10:36.327Z,5.30
2018-07-17T10:13:04.473Z,5.40
2018-07-17T10:15:33.392Z,5.23
2018-07-17T10:18:01.456Z,5.40
2018-07-17T10:20:29.494Z,5.30
2018-07-17T10:22:57.561Z,5.00
2018-07-17T10:25:25.609Z,5.33
2018-07-17T10:27:53.740Z,5.10
2018-07-17T10:30:21.791Z,4.57
2018-07-17T10:32:49.873Z,4.83
2018-07-17T10:35:17.951Z,5.50
2018-07-17T10:37:46.017Z,4.73
2018-07-17T10:40:14.104Z,4.40
2018-07-17T10:42:42.566Z,4.80
2018-07-17T10:45:11.636Z,5.47
2018-07-17T10:47:40.676Z,5.03
2018-07-17T10:50:09.438Z,5.70
2018-07-17T10:52:37.609Z,5.00
2018-07-17T10:55:05.767Z,5.07
2018-07-17T10:57:33.813Z,5.10
2018-07-17T11:00:01.946Z,5.53
2018-07-17T11:02:30.033Z,6.07
2018-07-17T11:04:58.105Z,5.67
2018-07-17T11:07:26.146Z,5.62
2018-07-17T11:09:54.214Z,5.20
2018-07-17T11:12:22.260Z,5.80
2018-07-17T11:14:50.333Z,6.63
2018-07-17T11:17:18.368Z,5.37
2018-07-17T11:19:46.467Z,6.10
2018-07-17T11:22:14.509Z,5.33
2018-07-17T11:24:42.915Z,4.90
2018-07-17T11:27:11.777Z,5.53
2018-07-17T11:29:40.501Z,5.37
2018-07-17T11:32:08.611Z,5.10
2018-07-17T11:34:36.841Z,5.17
2018-07-17T11:37:05.037Z,5.90
2018-07-17T11:39:33.144Z,5.43
2018-07-17T11:42:01.196Z,5.60
2018-07-17T11:44:29.257Z,5.50
2018-07-17T11:46:57.292Z,5.43
2018-07-17T11:49:25.380Z,5.80
2018-07-17T11:51:53.414Z,6.77
2018-07-17T11:54:21.501Z,5.73
2018-07-17T11:56:49.553Z,6.43
2018-07-17T11:59:17.696Z,5.17
2018-07-17T12:01:45.769Z,5.60
2018-07-17T12:04:14.068Z,6.10
2018-07-17T12:06:42.925Z,5.23
2018-07-17T12:09:12.039Z,6.47
2018-07-17T12:11:41.194Z,5.60
2018-07-17T12:14:09.624Z,5.60
2018-07-17T12:16:37.726Z,5.13
2018-07-17T12:19:05.843Z,5.20
2018-07-17T12:21:33.912Z,4.83
2018-07-17T12:24:01.959Z,3.60
2018-07-17T12:26:30.020Z,3.45
2018-07-17T12:28:58.069Z,4.50
2018-07-17T12:31:26.153Z,4.83
2018-07-17T12:33:54.452Z,4.10
2018-07-17T12:36:22.686Z,3.27
2018-07-17T12:38:50.734Z,3.00
2018-07-17T12:41:18.824Z,3.97
2018-07-17T12:43:46.872Z,4.27
2018-07-17T12:46:15.089Z,5.47
2018-07-17T12:48:43.802Z,5.63
2018-07-17T12:51:12.749Z,4.70
2018-07-17T12:53:41.533Z,4.77
2018-07-17T12:56:09.730Z,4.67
2018-07-17T12:58:37.803Z,4.60
2018-07-17T13:01:05.896Z,4.30
2018-07-17T13:03:34.122Z,5.10
2018-07-17T13:06:02.197Z,4.67
2018-07-17T13:08:30.407Z,3.73
2018-07-17T13:10:58.482Z,3.80
2018-07-17T13:13:26.539Z,3.80
2018-07-17T13:15:54.691Z,4.27
2018-07-17T13:18:22.720Z,3.20
2018-07-17T13:20:50.788Z,2.57
2018-07-17T13:23:18.859Z,2.23
2018-07-17T13:25:46.930Z,2.80
2018-07-17T13:28:15.248Z,2.47
2018-07-17T13:30:44.133Z,2.43
2018-07-17T13:33:13.070Z,3.20
2018-07-17T13:35:41.720Z,2.80
2018-07-17T13:38:09.838Z,2.70
2018-07-17T13:40:37.929Z,3.60
2018-07-17T13:43:06.028Z,3.00
2018-07-17T13:45:34.101Z,3.40
2018-07-17T13:48:02.158Z,3.10
2018-07-17T13:50:30.317Z,3.20
2018-07-17T13:52:58.317Z,2.63
2018-07-17T13:55:26.450Z,3.03
2018-07-17T13:57:54.516Z,2.90
2018-07-17T14:00:22.614Z,2.73
2018-07-17T14:02:50.674Z,3.60
2018-07-17T14:05:18.747Z,3.40
2018-07-17T14:07:46.835Z,3.30
2018-07-17T14:10:15.374Z,5.20
2018-07-17T14:12:44.480Z,4.33
2018-07-17T14:15:13.445Z,3.53
2018-07-17T14:17:41.918Z,3.23
2018-07-17T14:20:10.041Z,2.53
2018-07-17T14:22:38.330Z,2.97
2018-07-17T14:25:06.388Z,2.50
2018-07-17T14:27:34.463Z,2.93
2018-07-17T14:30:02.550Z,2.73
2018-07-17T14:32:30.638Z,2.87
2018-07-17T14:34:58.693Z,2.83
2018-07-17T14:37:26.782Z,3.10
2018-07-17T14:39:54.818Z,3.67
2018-07-17T14:42:22.897Z,2.87
2018-07-17T14:44:50.986Z,3.20
2018-07-17T14:47:19.095Z,3.05
2018-07-17T14:49:47.277Z,3.07
2018-07-17T14:52:15.932Z,3.63
2018-07-17T14:54:44.842Z,3.03
2018-07-17T14:57:13.521Z,3.70
2018-07-17T14:59:41.700Z,3.40
2018-07-17T15:02:09.828Z,3.50
2018-07-17T15:04:37.889Z,3.00
2018-07-17T15:07:05.965Z,2.80
2018-07-17T15:09:34.007Z,2.80
2018-07-17T15:12:02.126Z,2.60
2018-07-17T15:14:30.180Z,2.60
2018-07-17T15:16:58.269Z,14.77
2018-07-17T15:19:26.322Z,5.33
2018-07-17T15:21:54.409Z,2.63
2018-07-17T15:24:22.452Z,2.60
2018-07-17T15:26:50.519Z,2.80
2018-07-17T15:29:18.559Z,2.90
2018-07-17T15:31:47.025Z,3.00
2018-07-17T15:34:15.967Z,3.27
2018-07-17T15:36:44.797Z,3.55
2018-07-17T15:39:13.220Z,2.20
2018-07-17T15:41:41.335Z,3.47
2018-07-17T15:44:09.411Z,2.83
2018-07-17T15:46:37.792Z,3.53
2018-07-17T15:49:05.861Z,3.03
2018-07-17T15:51:33.970Z,2.73
2018-07-17T15:54:02.156Z,3.43
2018-07-17T15:56:30.222Z,3.30
2018-07-17T15:58:58.313Z,3.53
2018-07-17T16:01:26.357Z,3.17
2018-07-17T16:03:54.464Z,3.77
2018-07-17T16:06:22.534Z,2.60
2018-07-17T16:08:50.670Z,3.20
2018-07-17T16:11:18.902Z,2.43
2018-07-17T16:13:47.844Z,2.63
2018-07-17T16:16:16.990Z,2.90
2018-07-17T16:18:45.954Z,2.90
2018-07-17T16:21:14.632Z,3.90
2018-07-17T16:23:42.793Z,2.67
2018-07-17T16:26:11.219Z,3.25
2018-07-17T16:28:39.305Z,2.50
2018-07-17T16:31:07.397Z,2.80
2018-07-17T16:33:35.485Z,2.33
2018-07-17T16:36:03.645Z,2.80
2018-07-17T16:38:31.710Z,3.10
2018-07-17T16:40:59.782Z,2.77
2018-07-17T16:43:27.862Z,2.73
2018-07-17T16:45:55.917Z,2.60
2018-07-17T16:48:23.995Z,2.90
2018-07-17T16:50:52.043Z,2.30
2018-07-17T16:53:20.115Z,3.07
2018-07-17T16:55:48.700Z,3.03
2018-07-17T16:58:17.637Z,3.50
2018-07-17T17:00:46.378Z,3.13
2018-07-17T17:03:14.755Z,3.37
2018-07-17T17:05:42.888Z,4.00
2018-07-17T17:08:10.968Z,3.07
2018-07-17T17:10:39.150Z,2.90
2018-07-17T17:13:07.224Z,3.53
2018-07-17T17:15:35.271Z,3.90
2018-07-17T17:18:03.370Z,3.47
2018-07-17T17:20:31.449Z,3.50
2018-07-17T17:22:59.495Z,3.47
2018-07-17T17:25:27.582Z,3.70
2018-07-17T17:27:55.649Z,3.20
2018-07-17T17:30:23.796Z,3.77
2018-07-17T17:32:51.876Z,4.33
2018-07-17T17:35:20.231Z,3.70
2018-07-17T17:37:49.650Z,4.00
2018-07-17T17:40:18.752Z,3.37
2018-07-17T17:42:49.260Z,4.20
2018-07-17T17:45:18.336Z,3.80
2018-07-17T17:47:47.140Z,3.40
2018-07-17T17:50:15.932Z,3.87
2018-07-17T17:52:44.274Z,3.83
2018-07-17T17:55:12.691Z,3.33
2018-07-17T17:57:40.845Z,4.00
2018-07-17T18:00:08.940Z,4.17
2018-07-17T18:02:36.997Z,4.13
2018-07-17T18:05:05.216Z,4.13
2018-07-17T18:07:33.283Z,3.53
2018-07-17T18:10:01.539Z,3.57
2018-07-17T18:12:29.629Z,3.13
2018-07-17T18:14:57.763Z,3.97
2018-07-17T18:17:25.809Z,3.77
2018-07-17T18:19:54.019Z,3.40
2018-07-17T18:22:22.105Z,3.10
2018-07-17T18:24:50.841Z,3.40
2018-07-17T18:27:20.113Z,3.03
2018-07-17T18:29:48.984Z,3.27
2018-07-17T18:32:17.353Z,3.00
2018-07-17T18:34:45.520Z,2.87
2018-07-17T18:37:13.609Z,4.10
2018-07-17T18:39:41.686Z,3.23
2018-07-17T18:42:09.792Z,3.53
2018-07-17T18:44:37.881Z,3.00
2018-07-17T18:47:05.957Z,3.90
2018-07-17T18:49:34.033Z,3.63
2018-07-17T18:52:02.090Z,3.08
2018-07-17T18:54:30.156Z,3.50
2018-07-17T18:56:58.214Z,3.60
2018-07-17T18:59:26.289Z,3.37
2018-07-17T19:01:54.377Z,3.90
2018-07-17T19:04:22.591Z,3.23
2018-07-17T19:06:52.906Z,3.57
2018-07-17T19:09:21.700Z,3.43
2018-07-17T19:11:50.787Z,3.83
2018-07-17T19:14:19.393Z,3.83
2018-07-17T19:16:47.612Z,3.73
2018-07-17T19:19:15.697Z,3.53
2018-07-17T19:21:43.775Z,4.13
2018-07-17T19:24:11.959Z,3.50
2018-07-17T19:26:40.059Z,3.37
2018-07-17T19:29:08.158Z,3.70
2018-07-17T19:31:36.192Z,3.47
2018-07-17T19:34:04.249Z,3.80
2018-07-17T19:36:32.368Z,3.23
2018-07-17T19:39:00.448Z,3.00
2018-07-17T19:41:28.720Z,4.60
2018-07-17T19:43:56.764Z,4.20
2018-07-17T19:46:24.849Z,3.83
2018-07-17T19:48:53.529Z,3.60
2018-07-17T19:51:23.185Z,4.00
2018-07-17T19:53:52.134Z,4.90
2018-07-17T19:56:20.825Z,4.00
2018-07-17T19:58:48.973Z,4.20
2018-07-17T20:01:17.306Z,4.10
2018-07-17T20:03:45.389Z,4.00
2018-07-17T20:06:13.498Z,3.73
2018-07-17T20:08:41.650Z,4.03
2018-07-17T20:11:09.773Z,4.20
2018-07-17T20:13:37.947Z,4.10
2018-07-17T20:16:06.062Z,4.00
2018-07-17T20:18:34.135Z,4.00
2018-07-17T20:21:02.486Z,4.30
2018-07-17T20:23:30.560Z,4.10
2018-07-17T20:25:58.754Z,4.17
2018-07-17T20:28:26.918Z,4.40
2018-07-17T20:30:55.204Z,4.20
2018-07-17T20:33:24.179Z,5.03
2018-07-17T20:35:53.152Z,4.50
2018-07-17T20:38:21.828Z,5.10
2018-07-17T20:40:50.221Z,4.80
2018-07-17T20:43:18.349Z,4.50
2018-07-17T20:45:46.398Z,6.00
2018-07-17T20:48:14.480Z,4.77
2018-07-17T20:50:42.544Z,4.23
2018-07-17T20:53:10.622Z,3.80
2018-07-17T20:55:38.709Z,5.30
2018-07-17T20:58:06.793Z,4.27
2018-07-17T21:00:34.834Z,4.03
2018-07-17T21:03:02.896Z,4.70
2018-07-17T21:05:30.952Z,4.77
2018-07-17T21:07:59.040Z,4.90
2018-07-17T21:10:27.140Z,5.10
2018-07-17T21:12:55.718Z,3.87
2018-07-17T21:15:24.894Z,4.63
2018-07-17T21:17:53.847Z,4.33
2018-07-17T21:20:22.432Z,4.50
2018-07-17T21:22:50.563Z,4.10
2018-07-17T21:25:18.811Z,4.20
2018-07-17T21:27:46.840Z,4.63
2018-07-17T21:30:14.917Z,4.60
2018-07-17T21:32:42.992Z,5.13
2018-07-17T21:35:11.069Z,4.20
2018-07-17T21:37:39.143Z,4.17
2018-07-17T21:40:07.216Z,4.70
2018-07-17T21:42:35.326Z,5.20
2018-07-17T21:45:03.772Z,5.47
2018-07-17T21:47:31.848Z,4.47
2018-07-17T21:49:59.886Z,5.00
2018-07-17T21:52:28.109Z,4.50
2018-07-17T21:54:56.791Z,3.83
2018-07-17T21:57:25.775Z,5.03
2018-07-17T21:59:54.658Z,4.40
2018-07-17T22:02:22.830Z,4.63
2018-07-17T22:04:50.941Z,4.60
2018-07-17T22:07:19.002Z,4.80
2018-07-17T22:09:47.057Z,4.87
2018-07-17T22:12:15.163Z,4.20
2018-07-17T22:14:43.228Z,4.60
2018-07-17T22:17:11.306Z,3.45
2018-07-17T22:19:39.368Z,4.57
2018-07-17T22:22:07.463Z,4.63
2018-07-17T22:24:35.518Z,4.60
2018-07-17T22:27:03.570Z,4.30
2018-07-17T22:29:31.722Z,4.67
2018-07-17T22:31:59.779Z,4.40
2018-07-17T22:34:28.433Z,5.13
2018-07-17T22:36:57.515Z,5.40
2018-07-17T22:39:26.270Z,5.57
2018-07-17T22:41:54.449Z,4.93
2018-07-17T22:44:22.568Z,4.90
2018-07-17T22:46:50.613Z,4.50
2018-07-17T22:49:21.413Z,4.60
2018-07-17T22:51:49.893Z,4.07
2018-07-17T22:54:18.009Z,5.23
2018-07-17T22:56:46.377Z,4.70
2018-07-17T22:59:14.437Z,4.53
2018-07-17T23:01:42.493Z,4.20
2018-07-17T23:04:10.577Z,4.90
2018-07-17T23:06:38.637Z,4.63
2018-07-17T23:09:07.860Z,4.00
2018-07-17T23:11:36.107Z,4.30
2018-07-17T23:14:04.409Z,3.77
2018-07-17T23:16:32.445Z,3.67
2018-07-17T23:19:00.771Z,4.10
2018-07-17T23:21:29.606Z,5.10
2018-07-17T23:23:58.629Z,5.13
2018-07-17T23:26:27.718Z,4.47
2018-07-17T23:28:55.805Z,3.97
2018-07-17T23:31:23.906Z,4.53
2018-07-17T23:33:52.005Z,3.10
2018-07-17T23:36:20.077Z,3.83
2018-07-17T23:38:48.201Z,4.00
2018-07-17T23:41:16.237Z,4.12
2018-07-17T23:43:44.304Z,4.17
2018-07-17T23:46:12.371Z,3.83
2018-07-17T23:48:40.436Z,3.50
2018-07-17T23:51:08.488Z,3.60
2018-07-17T23:53:36.576Z,3.90
2018-07-17T23:56:04.633Z,4.33
2018-07-17T23:58:32.702Z,3.43
